Time;durP1;ratioP1;P1;durP2;ratioP2;P2;SDS_P1;SDS_P2;PMS_P1;PMS_P2;Temp;Humidity;BMP_temperature;BMP_pressure;BME280_temperature;BME280_humidity;BME280_pressure;Samples;Min_cycle;Max_cycle;Signal;HPM_P1;HPM_P2
2021/03/03 00:00:16;;;;;;;11.30;7.22;;;10.50;61.10;;;;;;4920885;29;20047;-96
2021/03/03 00:02:42;;;;;;;10.50;5.78;;;10.50;61.10;;;;;;4921710;29;20677;-96
2021/03/03 00:05:09;;;;;;;14.00;7.97;;;10.40;61.10;;;;;;4917490;29;20141;-96
2021/03/03 00:07:34;;;;;;;10.40;6.30;;;10.40;61.10;;;;;;4917896;29;20028;-96
2021/03/03 00:10:03;;;;;;;13.15;7.40;;;10.40;61.10;;;;;;4918271;29;20088;-96
2021/03/03 00:12:29;;;;;;;11.20;6.57;;;10.40;61.10;;;;;;4919746;29;20051;-96
2021/03/03 00:14:54;;;;;;;13.40;8.73;;;10.30;61.20;;;;;;4919263;29;20021;-96
2021/03/03 00:17:22;;;;;;;9.93;6.18;;;10.30;61.20;;;;;;4934209;29;20439;-94
2021/03/03 00:19:47;;;;;;;16.27;9.57;;;10.20;61.20;;;;;;4921001;29;20024;-96
2021/03/03 00:22:14;;;;;;;13.38;8.63;;;10.20;61.30;;;;;;4917801;29;20038;-95
2021/03/03 00:24:40;;;;;;;14.80;8.60;;;10.20;61.40;;;;;;4916673;29;20024;-96
2021/03/03 00:27:07;;;;;;;13.90;8.50;;;10.10;61.30;;;;;;4902272;29;20523;-96
2021/03/03 00:29:52;;;;;;;13.07;7.10;;;10.10;61.40;;;;;;4919293;29;20028;-96
2021/03/03 00:32:17;;;;;;;10.90;6.97;;;10.10;61.40;;;;;;4923654;29;20491;-95
2021/03/03 00:34:44;;;;;;;11.63;7.28;;;10.10;61.50;;;;;;4932987;29;20035;-95
2021/03/03 00:37:10;;;;;;;16.92;8.70;;;10.10;61.60;;;;;;4930536;29;20060;-96
2021/03/03 00:39:35;;;;;;;12.23;6.93;;;10.00;61.60;;;;;;4918848;29;20031;-96
2021/03/03 00:42:01;;;;;;;13.90;8.68;;;10.00;61.70;;;;;;4900295;29;20035;-96
2021/03/03 00:44:26;;;;;;;18.17;10.35;;;10.00;61.80;;;;;;4916340;29;20032;-96
2021/03/03 00:46:53;;;;;;;15.05;8.27;;;9.90;61.80;;;;;;4918605;29;20034;-96
2021/03/03 00:49:18;;;;;;;12.40;6.93;;;9.90;61.90;;;;;;4918703;29;20647;-96
2021/03/03 00:51:44;;;;;;;13.50;7.10;;;9.90;61.90;;;;;;4917736;29;20040;-96
2021/03/03 00:54:10;;;;;;;14.60;8.93;;;9.80;61.90;;;;;;4926267;29;20032;-96
2021/03/03 00:56:35;;;;;;;14.60;9.18;;;9.80;62.00;;;;;;4933544;29;20060;-96
2021/03/03 00:59:01;;;;;;;13.13;8.10;;;9.80;62.10;;;;;;4938396;29;20048;-96
2021/03/03 01:01:26;;;;;;;13.93;7.25;;;9.70;62.20;;;;;;4932671;29;20024;-96
2021/03/03 01:03:53;;;;;;;9.48;6.35;;;9.70;62.20;;;;;;4933258;29;20025;-96
2021/03/03 01:06:19;;;;;;;10.85;6.65;;;9.70;62.20;;;;;;4930648;29;20028;-96
2021/03/03 01:08:44;;;;;;;12.82;7.53;;;9.70;62.30;;;;;;4932028;29;20031;-96
2021/03/03 01:11:10;;;;;;;12.88;7.38;;;9.70;62.30;;;;;;4934148;29;20115;-96
2021/03/03 01:13:36;;;;;;;10.23;6.15;;;9.70;62.40;;;;;;4935294;29;20051;-96
2021/03/03 01:16:04;;;;;;;10.88;6.22;;;9.70;62.40;;;;;;4936256;29;20031;-96
2021/03/03 01:18:30;;;;;;;11.85;6.18;;;9.70;62.40;;;;;;4920140;29;20012;-96
2021/03/03 01:20:55;;;;;;;9.95;5.93;;;9.70;62.50;;;;;;4937127;29;20040;-96
2021/03/03 01:23:21;;;;;;;11.57;7.25;;;9.70;62.50;;;;;;4940875;29;20048;-96
2021/03/03 01:25:47;;;;;;;11.23;6.60;;;9.60;62.60;;;;;;4926711;29;20020;-96
2021/03/03 01:30:52;;;;;;;11.85;7.10;;;9.60;62.70;;;;;;5106753;23;20074;-96
2021/03/03 01:33:28;;;;;;;11.55;6.18;;;9.60;62.80;;;;;;4999029;28;20045;-96
2021/03/03 01:35:55;;;;;;;10.82;6.47;;;9.60;62.90;;;;;;4989798;28;20034;-96
2021/03/03 01:38:21;;;;;;;10.88;6.43;;;9.50;62.90;;;;;;4987634;28;20021;-96
2021/03/03 01:40:47;;;;;;;11.30;6.60;;;9.50;63.00;;;;;;5003847;28;20030;-96
2021/03/03 01:43:13;;;;;;;14.85;9.73;;;9.50;63.10;;;;;;5010922;28;20382;-96
2021/03/03 01:45:40;;;;;;;14.50;7.82;;;9.50;63.30;;;;;;5003009;28;20041;-96
2021/03/03 01:48:06;;;;;;;12.77;6.88;;;9.50;63.30;;;;;;4999155;28;20026;-96
2021/03/03 01:50:32;;;;;;;12.02;6.80;;;9.50;63.30;;;;;;4992423;28;20022;-96
2021/03/03 01:52:58;;;;;;;11.32;6.80;;;9.50;63.50;;;;;;4998566;28;20379;-96
2021/03/03 01:55:24;;;;;;;10.32;6.57;;;9.40;63.60;;;;;;4998443;28;20020;-94
2021/03/03 01:57:51;;;;;;;12.35;7.40;;;9.30;63.70;;;;;;4996583;28;20031;-95
2021/03/03 02:00:17;;;;;;;11.40;6.38;;;9.30;63.80;;;;;;4996897;28;20056;-96
2021/03/03 02:02:42;;;;;;;13.32;7.32;;;9.30;63.90;;;;;;4996845;28;20490;-96
2021/03/03 02:05:09;;;;;;;10.73;6.07;;;9.30;64.10;;;;;;5001261;28;20025;-95
2021/03/03 02:08:03;;;;;;;12.30;7.07;;;9.30;64.20;;;;;;5012769;28;20030;-95
2021/03/03 02:10:43;;;;;;;11.73;6.82;;;9.20;64.30;;;;;;5013858;28;20054;-95
2021/03/03 02:13:20;;;;;;;12.77;7.22;;;9.20;64.30;;;;;;5018036;28;20031;-95
2021/03/03 02:15:48;;;;;;;11.15;7.00;;;9.10;64.40;;;;;;5015277;28;20006;-96
2021/03/03 02:18:16;;;;;;;10.07;6.30;;;9.10;64.50;;;;;;5013146;28;20014;-96
2021/03/03 02:21:19;;;;;;;12.48;6.68;;;9.10;64.60;;;;;;5007091;28;20122;-96
2021/03/03 02:23:59;;;;;;;10.13;5.97;;;9.10;64.70;;;;;;5003545;28;20053;-96
2021/03/03 02:26:33;;;;;;;11.18;6.07;;;9.00;64.80;;;;;;4996316;28;20069;-96
2021/03/03 02:29:04;;;;;;;10.45;6.53;;;9.00;64.90;;;;;;4977714;28;20050;-96
2021/03/03 02:31:32;;;;;;;11.57;7.32;;;8.90;64.90;;;;;;4994012;28;20022;-96
2021/03/03 02:34:03;;;;;;;11.70;7.53;;;8.90;65.10;;;;;;4997465;28;20485;-96
2021/03/03 02:36:30;;;;;;;11.63;6.90;;;8.90;65.30;;;;;;4999081;28;20080;-96
2021/03/03 02:38:57;;;;;;;10.65;6.93;;;8.90;65.40;;;;;;4997976;28;20071;-96
2021/03/03 02:41:23;;;;;;;13.88;7.00;;;8.80;65.40;;;;;;5000917;28;20066;-96
2021/03/03 02:43:50;;;;;;;10.48;6.85;;;8.80;65.50;;;;;;4998042;28;20026;-96
2021/03/03 02:46:16;;;;;;;11.20;6.75;;;8.80;65.50;;;;;;4996521;28;20022;-96
2021/03/03 02:48:47;;;;;;;10.95;6.55;;;8.80;65.50;;;;;;4996150;28;20023;-94
2021/03/03 02:51:14;;;;;;;10.30;6.75;;;8.80;65.60;;;;;;4995206;28;20030;-96
2021/03/03 02:53:41;;;;;;;11.70;7.13;;;8.80;65.70;;;;;;4996568;28;20038;-96
2021/03/03 02:56:08;;;;;;;13.20;7.45;;;8.80;65.60;;;;;;4995420;28;20489;-96
2021/03/03 02:58:34;;;;;;;10.68;6.38;;;8.80;65.70;;;;;;4995405;28;20026;-96
2021/03/03 03:01:02;;;;;;;10.55;6.55;;;8.80;65.60;;;;;;4995202;28;20026;-95
2021/03/03 03:03:34;;;;;;;13.85;6.80;;;8.80;65.60;;;;;;4996465;28;20014;-95
2021/03/03 03:06:04;;;;;;;14.55;7.78;;;8.80;65.60;;;;;;5003486;28;20032;-95
2021/03/03 03:08:33;;;;;;;12.05;6.78;;;8.70;65.60;;;;;;5010679;28;20086;-95
2021/03/03 03:11:06;;;;;;;10.75;6.68;;;8.70;65.80;;;;;;4992565;28;20023;-96
2021/03/03 03:13:35;;;;;;;10.98;6.07;;;8.60;65.80;;;;;;4994677;28;20044;-95
2021/03/03 03:16:04;;;;;;;10.18;6.50;;;8.70;65.90;;;;;;4987187;28;20015;-95
2021/03/03 03:18:41;;;;;;;11.90;6.63;;;8.60;66.00;;;;;;4984177;28;20023;-95
2021/03/03 03:21:08;;;;;;;13.27;7.13;;;8.50;66.20;;;;;;4995387;28;20029;-96
2021/03/03 03:23:35;;;;;;;11.80;7.13;;;8.50;67.00;;;;;;4979073;28;20034;-96
2021/03/03 03:26:04;;;;;;;11.20;6.90;;;8.50;66.30;;;;;;4997009;28;20022;-96
2021/03/03 03:28:30;;;;;;;11.73;6.97;;;8.50;66.20;;;;;;4991681;28;20063;-96
2021/03/03 03:30:57;;;;;;;11.25;6.50;;;8.50;66.20;;;;;;4993085;28;20027;-96
2021/03/03 03:33:27;;;;;;;12.50;7.10;;;8.40;66.30;;;;;;4985301;28;20478;-96
2021/03/03 03:35:53;;;;;;;11.55;6.40;;;8.40;66.40;;;;;;5009540;28;20026;-96
2021/03/03 03:38:20;;;;;;;11.00;6.60;;;8.30;66.40;;;;;;5009084;28;20033;-96
2021/03/03 03:40:47;;;;;;;10.85;6.50;;;8.30;66.50;;;;;;4983117;28;20022;-96
2021/03/03 03:43:14;;;;;;;11.10;7.10;;;8.30;66.60;;;;;;5016044;28;20025;-96
2021/03/03 03:45:41;;;;;;;11.70;6.57;;;8.30;66.60;;;;;;4998593;28;20026;-96
2021/03/03 03:48:09;;;;;;;11.30;6.47;;;8.20;66.70;;;;;;5004642;28;20046;-96
2021/03/03 03:50:36;;;;;;;12.45;7.15;;;8.20;67.40;;;;;;5013060;28;20023;-96
2021/03/03 03:53:07;;;;;;;10.80;6.78;;;8.20;66.90;;;;;;5006813;28;20135;-96
2021/03/03 03:55:37;;;;;;;10.70;6.45;;;8.10;67.00;;;;;;4999847;28;20468;-95
2021/03/03 03:58:05;;;;;;;12.32;6.88;;;8.00;67.00;;;;;;4993214;28;20306;-95
2021/03/03 04:00:32;;;;;;;12.95;7.28;;;8.10;67.20;;;;;;4994646;28;20050;-95
2021/03/03 04:02:58;;;;;;;12.65;7.28;;;8.00;67.00;;;;;;5006749;28;20022;-96
2021/03/03 04:05:25;;;;;;;11.38;7.40;;;8.00;67.20;;;;;;4997151;28;20027;-96
2021/03/03 04:07:51;;;;;;;11.70;7.07;;;8.00;67.30;;;;;;4995213;28;20461;-95
2021/03/03 04:10:24;;;;;;;10.65;6.78;;;8.10;67.40;;;;;;4995317;28;20038;-95
2021/03/03 04:12:49;;;;;;;11.32;6.75;;;8.10;67.40;;;;;;4996414;28;20026;-96
2021/03/03 04:15:17;;;;;;;12.32;6.70;;;8.20;67.30;;;;;;4998833;28;20041;-96
2021/03/03 04:17:42;;;;;;;10.18;6.53;;;8.20;67.20;;;;;;4999617;28;20481;-96
2021/03/03 04:20:11;;;;;;;10.50;6.50;;;8.20;67.20;;;;;;4994339;28;20033;-95
2021/03/03 04:22:38;;;;;;;9.63;6.50;;;8.20;67.10;;;;;;4995459;28;20027;-96
2021/03/03 04:25:07;;;;;;;12.93;7.13;;;8.20;67.10;;;;;;4993403;28;20023;-95
2021/03/03 04:27:39;;;;;;;10.15;6.13;;;8.20;67.10;;;;;;4994871;28;20022;-94
2021/03/03 04:30:12;;;;;;;12.20;7.40;;;8.20;67.20;;;;;;4989827;28;20034;-96
2021/03/03 04:32:38;;;;;;;12.73;8.50;;;8.20;67.20;;;;;;5007085;28;20045;-96
2021/03/03 04:35:06;;;;;;;12.52;7.60;;;8.20;67.40;;;;;;5003915;28;20026;-96
2021/03/03 04:37:32;;;;;;;15.38;8.95;;;8.20;67.50;;;;;;5000313;28;20026;-96
2021/03/03 04:39:57;;;;;;;13.63;8.43;;;8.10;68.20;;;;;;5001304;28;20057;-96
2021/03/03 04:42:23;;;;;;;11.52;7.28;;;8.20;67.70;;;;;;5010356;28;20018;-96
2021/03/03 04:44:48;;;;;;;10.93;6.47;;;8.20;67.60;;;;;;5012537;28;20015;-96
2021/03/03 04:47:15;;;;;;;10.73;7.07;;;8.20;67.50;;;;;;4997543;28;20026;-96
2021/03/03 04:49:41;;;;;;;12.13;7.07;;;8.20;67.60;;;;;;4992675;28;20033;-95
2021/03/03 04:52:07;;;;;;;12.30;7.18;;;8.20;67.60;;;;;;4990463;28;20042;-95
2021/03/03 04:54:34;;;;;;;11.30;6.65;;;8.10;67.60;;;;;;4988486;28;20126;-96
2021/03/03 04:57:02;;;;;;;10.65;6.93;;;8.10;67.80;;;;;;4993772;28;20069;-96
2021/03/03 04:59:27;;;;;;;10.98;7.10;;;8.00;67.70;;;;;;4995858;28;20481;-96
2021/03/03 05:01:53;;;;;;;11.75;7.55;;;8.00;67.90;;;;;;4997811;28;20048;-96
2021/03/03 05:04:19;;;;;;;12.82;7.15;;;8.00;68.10;;;;;;4998023;28;20045;-96
2021/03/03 05:06:44;;;;;;;15.60;8.57;;;7.90;68.20;;;;;;5005706;28;20022;-96
2021/03/03 05:09:10;;;;;;;14.27;8.07;;;7.90;68.40;;;;;;5004391;28;20025;-96
2021/03/03 05:11:35;;;;;;;20.80;11.68;;;8.00;68.60;;;;;;5011028;28;20050;-96
2021/03/03 05:14:01;;;;;;;15.77;9.95;;;8.00;68.90;;;;;;4999577;28;20044;-95
2021/03/03 05:16:27;;;;;;;12.90;8.07;;;8.10;68.80;;;;;;5005317;28;20043;-95
2021/03/03 05:18:52;;;;;;;14.70;8.65;;;8.10;68.60;;;;;;4990734;28;20304;-96
2021/03/03 05:21:18;;;;;;;12.43;7.07;;;8.20;68.40;;;;;;4999920;28;20046;-96
2021/03/03 05:23:44;;;;;;;13.40;7.82;;;8.20;68.40;;;;;;4995332;28;20030;-96
2021/03/03 05:26:11;;;;;;;12.15;7.18;;;8.20;68.40;;;;;;4998645;28;20018;-96
2021/03/03 05:28:37;;;;;;;10.77;6.70;;;8.20;68.40;;;;;;4997302;28;20038;-96
2021/03/03 05:31:06;;;;;;;10.73;6.65;;;8.20;68.40;;;;;;5001490;28;20030;-96
2021/03/03 05:33:36;;;;;;;11.20;6.65;;;8.20;68.40;;;;;;4987973;28;20050;-93
2021/03/03 05:36:06;;;;;;;11.63;7.15;;;8.20;68.30;;;;;;5008160;28;20019;-96
2021/03/03 05:38:42;;;;;;;12.68;7.05;;;8.20;68.30;;;;;;5016372;28;20061;-95
2021/03/03 05:41:12;;;;;;;11.93;6.90;;;8.30;68.30;;;;;;5014268;28;20030;-96
2021/03/03 05:50:11;;;;;;;11.52;6.82;;;8.30;68.20;;;;;;5007444;28;20049;-96
2021/03/03 05:52:48;;;;;;;11.73;6.97;;;8.30;68.20;;;;;;5004345;28;20050;-96
2021/03/03 05:55:24;;;;;;;;;;;8.30;68.20;;;;;;5006676;28;20097;-96
2021/03/03 05:57:50;;;;;;;13.52;7.45;;;8.20;68.20;;;;;;4985750;28;19970;-95
2021/03/03 06:00:17;;;;;;;12.52;7.30;;;8.20;68.30;;;;;;5000201;28;20053;-94
2021/03/03 06:02:43;;;;;;;11.38;6.65;;;8.20;68.30;;;;;;4985631;28;20030;-96
2021/03/03 06:05:13;;;;;;;10.02;6.53;;;8.30;68.30;;;;;;4996616;28;20041;-96
2021/03/03 06:07:40;;;;;;;13.02;7.30;;;8.20;68.20;;;;;;4983716;28;20030;-95
2021/03/03 06:10:06;;;;;;;15.90;9.18;;;8.20;68.20;;;;;;4984883;28;20033;-95
2021/03/03 06:12:32;;;;;;;19.40;10.52;;;8.20;68.30;;;;;;4978312;28;20022;-95
2021/03/03 06:14:58;;;;;;;15.63;8.73;;;8.20;68.40;;;;;;4984496;28;20030;-95
2021/03/03 06:17:24;;;;;;;16.67;9.68;;;8.30;68.40;;;;;;4999721;28;20022;-92
2021/03/03 06:19:50;;;;;;;18.38;9.77;;;8.20;68.50;;;;;;5018664;28;20018;-95
2021/03/03 06:22:26;;;;;;;12.90;8.80;;;8.20;68.70;;;;;;5004482;28;20425;-94
2021/03/03 06:24:58;;;;;;;16.25;9.52;;;8.20;68.70;;;;;;4996923;28;20085;-95
2021/03/03 06:27:25;;;;;;;15.10;8.77;;;8.20;68.70;;;;;;4988844;28;20027;-95
2021/03/03 06:30:05;;;;;;;12.07;8.05;;;8.10;68.70;;;;;;4979417;28;20357;-95
2021/03/03 06:32:31;;;;;;;14.95;7.82;;;8.20;68.80;;;;;;4997337;28;20493;-96
2021/03/03 06:34:57;;;;;;;14.13;8.27;;;8.20;68.70;;;;;;5009910;28;20037;-95
2021/03/03 06:37:23;;;;;;;12.55;7.68;;;8.20;68.70;;;;;;5004293;28;20011;-96
2021/03/03 06:40:09;;;;;;;12.75;8.65;;;8.20;68.70;;;;;;4998929;28;20029;-95
2021/03/03 06:42:34;;;;;;;12.00;7.55;;;8.20;68.70;;;;;;5003480;28;20037;-94
2021/03/03 06:45:00;;;;;;;9.75;5.93;;;8.20;68.60;;;;;;5008012;28;20006;-95
2021/03/03 06:47:26;;;;;;;11.40;6.50;;;8.30;68.60;;;;;;5002616;28;20071;-96
2021/03/03 06:49:53;;;;;;;12.68;7.68;;;8.20;68.70;;;;;;5009575;28;20011;-91
2021/03/03 06:52:40;;;;;;;11.63;7.22;;;8.30;68.80;;;;;;4987650;28;20027;-92
2021/03/03 06:55:07;;;;;;;13.88;7.82;;;8.30;68.80;;;;;;4990066;28;20022;-89
2021/03/03 06:57:32;;;;;;;10.40;7.10;;;8.30;68.80;;;;;;4992715;28;20373;-89
2021/03/03 06:59:58;;;;;;;13.68;7.43;;;8.30;68.70;;;;;;4993027;28;20029;-91
2021/03/03 07:02:31;;;;;;;12.60;7.28;;;8.30;68.70;;;;;;4991525;28;20578;-87
2021/03/03 07:04:58;;;;;;;13.93;9.27;;;8.40;68.70;;;;;;4981721;28;20027;-95
2021/03/03 07:07:26;;;;;;;12.95;7.88;;;8.40;68.70;;;;;;4980876;28;20457;-93
2021/03/03 07:10:01;;;;;;;15.15;8.98;;;8.40;68.60;;;;;;4996332;28;20030;-95
2021/03/03 07:12:29;;;;;;;16.10;10.00;;;8.40;68.60;;;;;;5005970;28;20042;-93
2021/03/03 07:15:00;;;;;;;15.48;9.93;;;8.40;68.50;;;;;;4991314;28;20035;-96
2021/03/03 07:17:36;;;;;;;12.75;8.02;;;8.50;68.60;;;;;;4988568;28;20363;-95
2021/03/03 07:20:06;;;;;;;16.45;8.43;;;8.50;68.50;;;;;;4983274;28;20026;-95
2021/03/03 07:22:39;;;;;;;11.45;6.60;;;8.50;68.40;;;;;;5007415;28;20195;-94
2021/03/03 07:25:16;;;;;;;16.00;9.00;;;8.60;68.30;;;;;;5009823;28;20038;-95
2021/03/03 07:27:43;;;;;;;13.40;8.30;;;8.60;68.40;;;;;;4988424;28;20030;-95
2021/03/03 07:30:09;;;;;;;14.27;8.68;;;8.70;68.40;;;;;;4990980;28;20019;-95
2021/03/03 07:32:36;;;;;;;12.90;7.90;;;8.70;68.10;;;;;;4987196;28;20029;-95
2021/03/03 07:40:03;;;;;;;13.60;7.20;;;8.90;68.00;;;;;;4977902;28;20061;-92
2021/03/03 07:42:30;;;;;;;16.90;9.55;;;8.90;67.90;;;;;;4960517;28;20041;-96
2021/03/03 07:44:57;;;;;;;15.10;10.10;;;9.00;67.90;;;;;;4966545;28;20101;-91
2021/03/03 07:47:25;;;;;;;16.67;9.32;;;9.00;67.90;;;;;;4978047;28;20026;-91
2021/03/03 07:50:08;;;;;;;16.10;9.70;;;9.10;67.80;;;;;;4975106;28;20022;-90
2021/03/03 07:52:34;;;;;;;12.73;8.32;;;9.10;67.60;;;;;;4974621;28;20030;-90
2021/03/03 07:55:01;;;;;;;13.30;8.35;;;9.20;67.50;;;;;;4976285;28;20034;-91
2021/03/03 07:57:34;;;;;;;15.70;10.30;;;9.40;67.40;;;;;;4984493;28;20034;-90
2021/03/03 08:00:06;;;;;;;20.60;11.20;;;9.40;67.20;;;;;;4976070;28;20495;-90
2021/03/03 08:02:46;;;;;;;14.77;9.85;;;9.50;67.20;;;;;;5011752;28;20038;-91
2021/03/03 08:05:29;;;;;;;13.82;8.38;;;9.50;67.00;;;;;;4983410;28;20026;-93
2021/03/03 08:08:23;;;;;;;13.43;8.52;;;9.60;66.80;;;;;;4996670;28;20468;-91
2021/03/03 08:10:51;;;;;;;13.75;8.98;;;9.70;66.80;;;;;;4977670;28;20086;-96
2021/03/03 08:13:31;;;;;;;14.57;10.00;;;9.80;66.60;;;;;;4964554;28;20027;-93
2021/03/03 08:16:05;;;;;;;15.80;9.13;;;9.90;66.50;;;;;;4995086;28;20018;-89
2021/03/03 08:18:37;;;;;;;15.05;9.60;;;10.00;66.40;;;;;;4981856;28;20022;-87
2021/03/03 08:21:09;;;;;;;17.25;10.73;;;10.20;66.30;;;;;;4965106;28;20093;-90
2021/03/03 08:23:34;;;;;;;13.77;9.15;;;10.20;66.10;;;;;;4995044;28;20069;-92
2021/03/03 08:26:15;;;;;;;24.70;15.00;;;10.40;66.00;;;;;;4993573;28;20038;-91
2021/03/03 08:28:50;;;;;;;22.95;13.43;;;10.30;65.90;;;;;;5035952;23;20207;-96
2021/03/03 08:31:30;;;;;;;22.10;14.23;;;10.40;65.90;;;;;;5003512;23;20007;-96
2021/03/03 08:33:58;;;;;;;25.80;14.00;;;10.40;65.70;;;;;;4958217;28;20477;-93
2021/03/03 08:36:24;;;;;;;21.23;13.63;;;10.40;65.60;;;;;;4957448;28;20029;-96
2021/03/03 08:39:05;;;;;;;22.65;14.23;;;10.50;65.60;;;;;;4959960;23;20051;-93
2021/03/03 08:41:32;;;;;;;21.88;13.60;;;10.50;65.60;;;;;;5113132;23;20326;-95
2021/03/03 08:44:11;;;;;;;17.55;12.18;;;10.40;65.60;;;;;;4944943;29;20035;-90
2021/03/03 08:46:44;;;;;;;17.42;10.20;;;10.50;65.70;;;;;;4987522;23;20128;-94
2021/03/03 08:49:09;;;;;;;22.55;13.55;;;10.60;65.60;;;;;;4972403;28;20127;-95
2021/03/03 08:51:40;;;;;;;20.45;12.90;;;10.70;65.50;;;;;;4937964;29;20099;-95
2021/03/03 08:54:12;;;;;;;23.90;14.68;;;10.70;65.40;;;;;;4957070;29;20035;-96
2021/03/03 08:56:44;;;;;;;17.52;10.95;;;10.70;65.50;;;;;;4925906;29;20083;-91
2021/03/03 08:59:28;;;;;;;13.52;9.18;;;10.70;65.50;;;;;;4935693;29;21802;-96
2021/03/03 09:04:55;;;;;;;9.70;6.22;;;10.90;65.30;;;;;;5230756;23;20113;-94
2021/03/03 09:09:59;;;;;;;14.82;9.48;;;11.10;65.00;;;;;;5235687;23;21293;-92
2021/03/03 09:12:27;;;;;;;18.95;11.43;;;11.20;64.90;;;;;;4955153;29;20019;-94
2021/03/03 09:17:28;;;;;;;16.70;10.13;;;11.40;64.80;;;;;;4945290;29;20056;-91
2021/03/03 09:19:55;;;;;;;17.10;10.65;;;11.40;64.60;;;;;;4916745;29;20028;-91
2021/03/03 09:22:27;;;;;;;16.83;10.80;;;11.50;64.60;;;;;;4948726;28;20019;-90
2021/03/03 09:24:56;;;;;;;19.45;11.23;;;11.60;64.50;;;;;;4951868;29;20046;-94
2021/03/03 09:27:24;;;;;;;15.82;10.90;;;11.70;64.50;;;;;;5244903;23;20048;-92
2021/03/03 09:29:50;;;;;;;18.17;11.35;;;11.70;64.40;;;;;;4938333;29;20083;-95
2021/03/03 09:32:21;;;;;;;17.58;10.88;;;11.90;64.30;;;;;;4921140;29;20028;-94
2021/03/03 09:35:05;;;;;;;20.75;13.40;;;12.00;64.10;;;;;;4920228;29;20040;-94
2021/03/03 09:37:45;;;;;;;16.35;10.85;;;12.10;64.00;;;;;;4938291;29;20105;-94
2021/03/03 09:40:16;;;;;;;16.88;11.15;;;12.20;63.80;;;;;;4940815;29;20051;-93
2021/03/03 09:42:47;;;;;;;15.85;10.43;;;12.30;63.60;;;;;;4940640;29;20028;-93
2021/03/03 09:45:19;;;;;;;17.70;12.38;;;12.40;63.60;;;;;;4930511;29;20109;-90
2021/03/03 09:47:45;;;;;;;19.73;13.55;;;12.50;63.50;;;;;;4926808;29;20015;-90
2021/03/03 09:50:18;;;;;;;20.88;15.50;;;12.60;63.40;;;;;;4934896;29;20020;-90
2021/03/03 09:52:50;;;;;;;21.63;15.40;;;12.70;63.30;;;;;;4939151;29;20051;-93
2021/03/03 10:00:34;;;;;;;22.48;15.00;;;12.60;63.00;;;;;;5130715;23;20059;-96
2021/03/03 10:03:06;;;;;;;27.30;19.42;;;12.70;63.20;;;;;;4956211;29;20023;-89
2021/03/03 10:05:33;;;;;;;25.95;17.23;;;12.70;62.90;;;;;;4941681;29;20077;-88
2021/03/03 10:08:00;;;;;;;24.05;16.17;;;12.70;63.00;;;;;;4949837;29;20020;-95
2021/03/03 10:10:31;;;;;;;23.02;16.60;;;12.70;63.00;;;;;;4970310;28;20034;-92
2021/03/03 10:12:58;;;;;;;27.55;17.42;;;12.80;62.80;;;;;;5067068;23;20156;-95
2021/03/03 10:15:30;;;;;;;24.05;16.50;;;12.80;62.70;;;;;;4988800;28;20089;-93
2021/03/03 10:18:33;;;;;;;25.05;15.68;;;12.80;62.70;;;;;;5014988;28;20337;-93
2021/03/03 10:20:59;;;;;;;25.50;16.55;;;12.80;62.70;;;;;;5016416;28;20074;-90
2021/03/03 10:23:28;;;;;;;23.95;16.42;;;12.90;62.50;;;;;;4996340;28;20014;-91
2021/03/03 10:26:07;;;;;;;25.67;16.85;;;12.90;62.40;;;;;;4997032;28;20117;-91
2021/03/03 10:28:33;;;;;;;26.15;17.88;;;13.00;62.40;;;;;;4997876;28;20057;-96
2021/03/03 10:31:02;;;;;;;25.92;17.52;;;13.10;62.30;;;;;;4993402;28;20030;-92
2021/03/03 10:33:30;;;;;;;21.80;15.02;;;13.20;62.30;;;;;;5012115;28;20038;-91
2021/03/03 10:36:01;;;;;;;23.80;15.63;;;13.30;62.10;;;;;;5014158;28;20076;-92
2021/03/03 10:38:28;;;;;;;27.08;19.15;;;13.30;62.00;;;;;;5016193;28;20065;-95
2021/03/03 10:41:02;;;;;;;19.92;13.95;;;13.40;61.80;;;;;;4988300;28;20026;-95
2021/03/03 10:43:29;;;;;;;27.05;19.02;;;13.40;61.80;;;;;;4986105;28;20026;-94
2021/03/03 10:46:10;;;;;;;25.50;17.35;;;13.50;61.70;;;;;;4991037;28;20029;-92
2021/03/03 10:48:35;;;;;;;24.17;17.13;;;13.50;61.60;;;;;;4985914;28;20086;-94
2021/03/03 10:51:03;;;;;;;20.52;13.32;;;13.60;61.50;;;;;;4993504;28;20041;-93
2021/03/03 10:53:57;;;;;;;22.52;15.32;;;13.70;61.40;;;;;;4988396;28;20049;-89
2021/03/03 10:56:30;;;;;;;24.98;16.90;;;13.80;61.40;;;;;;4993418;28;20030;-90
2021/03/03 10:58:58;;;;;;;24.63;16.55;;;13.90;61.20;;;;;;4976787;28;20121;-87
2021/03/03 11:01:38;;;;;;;28.77;19.08;;;14.00;61.00;;;;;;4986718;28;20939;-89
2021/03/03 11:04:05;;;;;;;20.27;13.63;;;14.10;61.00;;;;;;4987061;28;20061;-88
2021/03/03 11:06:35;;;;;;;26.83;15.85;;;14.10;61.00;;;;;;4990040;28;20027;-91
2021/03/03 11:09:02;;;;;;;25.38;17.10;;;14.20;61.00;;;;;;4992246;28;20034;-89
2021/03/03 11:11:28;;;;;;;28.98;20.05;;;14.30;60.70;;;;;;4979324;28;20029;-90
2021/03/03 11:13:54;;;;;;;29.40;20.40;;;14.50;60.50;;;;;;4975374;28;20382;-90
2021/03/03 11:16:23;;;;;;;27.58;19.05;;;14.50;60.10;;;;;;4967468;28;20377;-90
2021/03/03 11:18:50;;;;;;;25.27;17.08;;;14.60;60.00;;;;;;4985298;28;20034;-90
2021/03/03 11:21:17;;;;;;;25.70;16.95;;;14.80;59.80;;;;;;4957345;28;20030;-90
2021/03/03 11:23:43;;;;;;;26.48;17.40;;;14.90;59.70;;;;;;4977117;28;20102;-90
2021/03/03 11:26:08;;;;;;;27.70;19.45;;;15.10;59.50;;;;;;4980282;28;20133;-91
2021/03/03 11:28:34;;;;;;;25.20;16.83;;;15.10;59.20;;;;;;4993426;28;20024;-91
2021/03/03 11:31:00;;;;;;;30.70;21.10;;;15.20;59.20;;;;;;4959476;28;20253;-92
2021/03/03 11:33:25;;;;;;;33.88;21.67;;;15.30;59.00;;;;;;4978801;28;20031;-90
2021/03/03 11:35:51;;;;;;;32.85;21.67;;;15.30;58.70;;;;;;4975762;28;20038;-91
2021/03/03 11:38:24;;;;;;;29.23;21.15;;;15.30;58.50;;;;;;4976550;28;20026;-90
2021/03/03 11:40:49;;;;;;;31.63;22.63;;;15.30;58.40;;;;;;4993803;28;20037;-91
2021/03/03 11:43:15;;;;;;;27.05;18.60;;;15.30;58.40;;;;;;4974424;28;20011;-91
2021/03/03 11:45:40;;;;;;;31.58;22.05;;;15.40;58.40;;;;;;4990790;28;20494;-90
2021/03/03 11:48:23;;;;;;;33.50;22.30;;;15.40;58.20;;;;;;4976047;28;20092;-90
2021/03/03 11:50:49;;;;;;;31.35;21.30;;;15.40;58.10;;;;;;4989942;28;20049;-91
2021/03/03 11:53:15;;;;;;;34.28;22.67;;;15.50;58.20;;;;;;5004787;28;20033;-91
2021/03/03 11:55:40;;;;;;;40.47;27.95;;;15.40;58.50;;;;;;4996076;28;20030;-91
2021/03/03 11:58:15;;;;;;;34.75;25.67;;;15.30;58.70;;;;;;4973429;28;20036;-90
2021/03/03 12:00:41;;;;;;;30.52;20.85;;;15.20;59.00;;;;;;4972974;28;20023;-85
2021/03/03 12:03:07;;;;;;;26.10;19.40;;;15.30;59.20;;;;;;4985667;28;20081;-84
2021/03/03 12:05:32;;;;;;;25.92;19.35;;;15.40;59.20;;;;;;4984523;28;20034;-85
2021/03/03 12:07:58;;;;;;;37.65;24.83;;;15.40;59.20;;;;;;4960721;28;20085;-85
2021/03/03 12:10:24;;;;;;;33.42;23.00;;;15.60;59.10;;;;;;4985292;28;20029;-86
2021/03/03 12:12:51;;;;;;;33.83;22.52;;;15.60;58.80;;;;;;4971610;28;20049;-86
2021/03/03 12:15:17;;;;;;;35.65;24.58;;;15.70;58.70;;;;;;4973288;28;20038;-85
2021/03/03 12:17:43;;;;;;;28.35;19.30;;;15.70;58.60;;;;;;4978653;28;20553;-88
2021/03/03 12:20:09;;;;;;;46.08;29.00;;;15.80;58.60;;;;;;4987134;28;20033;-87
2021/03/03 12:22:35;;;;;;;32.10;22.40;;;15.80;58.00;;;;;;4985491;28;20045;-87
2021/03/03 12:25:01;;;;;;;25.65;18.60;;;15.90;58.20;;;;;;4987544;28;20096;-86
2021/03/03 12:27:27;;;;;;;27.55;19.55;;;16.00;58.10;;;;;;4986379;28;20030;-87
2021/03/03 12:29:53;;;;;;;35.85;24.67;;;16.10;57.90;;;;;;4960796;28;20030;-87
2021/03/03 12:32:18;;;;;;;29.95;21.05;;;16.20;57.40;;;;;;4966516;28;20477;-87
2021/03/03 12:34:44;;;;;;;27.77;19.35;;;16.30;57.40;;;;;;4959263;28;20478;-87
2021/03/03 12:37:10;;;;;;;36.92;24.92;;;16.30;57.20;;;;;;4986702;28;20033;-88
2021/03/03 12:39:35;;;;;;;40.40;28.70;;;16.20;56.70;;;;;;4983382;28;20038;-86
2021/03/03 12:42:01;;;;;;;39.10;28.08;;;16.10;56.60;;;;;;4966834;28;20030;-85
2021/03/03 12:44:30;;;;;;;34.63;25.25;;;16.10;56.50;;;;;;4966485;28;20037;-85
2021/03/03 12:46:56;;;;;;;27.67;19.75;;;16.10;56.60;;;;;;4981576;28;20019;-84
2021/03/03 12:49:22;;;;;;;33.22;23.15;;;16.20;56.60;;;;;;4966806;28;20062;-88
2021/03/03 12:51:48;;;;;;;29.90;20.77;;;16.20;56.40;;;;;;4984675;28;20419;-89
2021/03/03 12:54:13;;;;;;;22.73;16.77;;;16.30;56.40;;;;;;4981683;28;20048;-86
2021/03/03 12:56:39;;;;;;;29.98;21.05;;;16.30;56.50;;;;;;4988475;28;20034;-88
2021/03/03 12:59:07;;;;;;;30.48;20.92;;;16.30;56.30;;;;;;4987358;28;20028;-86
2021/03/03 13:01:33;;;;;;;29.45;20.85;;;16.40;56.20;;;;;;4987423;28;20666;-87
2021/03/03 13:03:58;;;;;;;32.10;23.35;;;16.40;56.20;;;;;;4987094;28;20122;-88
2021/03/03 13:06:24;;;;;;;30.05;20.30;;;16.50;55.70;;;;;;4987408;28;20121;-87
2021/03/03 13:08:52;;;;;;;31.20;20.65;;;16.70;55.70;;;;;;4965198;28;20061;-86
2021/03/03 13:11:18;;;;;;;40.72;28.90;;;16.80;55.40;;;;;;4987643;28;20019;-89
2021/03/03 13:13:44;;;;;;;28.83;19.50;;;16.90;54.90;;;;;;4967438;28;20548;-84